createdAt,value
2018-06-05T00:00:24.406Z,43.23
2018-06-05T00:02:52.574Z,46.20
2018-06-05T00:05:20.754Z,43.97
2018-06-05T00:07:48.987Z,47.10
2018-06-05T00:10:17.158Z,46.43
2018-06-05T00:12:45.306Z,48.13
2018-06-05T00:15:13.478Z,47.97
2018-06-05T00:17:41.658Z,46.60
2018-06-05T00:20:09.826Z,44.53
2018-06-05T00:22:37.990Z,44.87
2018-06-05T00:25:06.155Z,43.87
2018-06-05T00:27:34.352Z,47.27
2018-06-05T00:30:02.511Z,43.97
2018-06-05T00:32:30.674Z,46.00
2018-06-05T00:34:58.835Z,44.40
2018-06-05T00:37:27.002Z,46.53
2018-06-05T00:39:55.167Z,45.00
2018-06-05T00:42:23.338Z,45.70
2018-06-05T00:44:51.766Z,48.70
2018-06-05T00:47:19.922Z,45.93
2018-06-05T00:49:48.102Z,45.07
2018-06-05T00:52:16.259Z,46.83
2018-06-05T00:54:44.418Z,45.93
2018-06-05T00:57:12.586Z,44.93
2018-06-05T00:59:40.738Z,47.10
2018-06-05T01:02:08.914Z,46.27
2018-06-05T01:04:37.070Z,49.50
2018-06-05T01:07:05.234Z,49.40
2018-06-05T01:09:33.598Z,50.33
2018-06-05T01:12:01.750Z,49.80
2018-06-05T01:14:29.922Z,51.97
2018-06-05T01:16:58.070Z,50.10
2018-06-05T01:19:26.258Z,51.50
2018-06-05T01:21:54.418Z,50.27
2018-06-05T01:24:22.580Z,51.20
2018-06-05T01:26:50.739Z,53.20
2018-06-05T01:29:18.892Z,50.63
2018-06-05T01:31:47.055Z,51.87
2018-06-05T01:34:15.210Z,54.10
2018-06-05T01:36:43.402Z,51.63
2018-06-05T01:39:11.730Z,54.40
2018-06-05T01:41:39.885Z,53.87
2018-06-05T01:44:08.039Z,51.40
2018-06-05T01:46:36.190Z,52.03
2018-06-05T01:49:04.354Z,55.97
2018-06-05T01:51:32.520Z,53.97
2018-06-05T01:54:00.671Z,52.87
2018-06-05T01:56:28.834Z,54.93
2018-06-05T01:58:56.998Z,52.30
2018-06-05T02:01:25.154Z,52.70
2018-06-05T02:03:53.311Z,52.27
2018-06-05T02:06:21.475Z,52.07
2018-06-05T02:08:49.630Z,53.87
2018-06-05T02:11:17.798Z,52.13
2018-06-05T02:13:45.946Z,53.60
2018-06-05T02:16:14.107Z,52.67
2018-06-05T02:18:42.262Z,53.03
2018-06-05T02:21:10.434Z,52.70
2018-06-05T02:23:38.590Z,50.10
2018-06-05T02:26:06.766Z,52.97
2018-06-05T02:28:34.927Z,51.10
2018-06-05T02:31:03.078Z,53.63
2018-06-05T02:33:31.242Z,53.10
2018-06-05T02:35:59.399Z,54.20
2018-06-05T02:38:27.565Z,53.33
2018-06-05T02:40:55.728Z,52.40
2018-06-05T02:43:23.883Z,51.60
2018-06-05T02:45:52.039Z,51.63
2018-06-05T02:48:20.203Z,51.57
2018-06-05T02:50:48.371Z,51.77
2018-06-05T02:53:16.743Z,50.47
2018-06-05T02:55:44.899Z,52.27
2018-06-05T02:58:13.060Z,52.03
2018-06-05T03:00:41.237Z,50.07
2018-06-05T03:03:09.386Z,52.17
2018-06-05T03:05:37.558Z,50.57
2018-06-05T03:08:05.723Z,51.60
2018-06-05T03:10:33.894Z,51.20
2018-06-05T03:13:02.050Z,51.63
2018-06-05T03:15:30.230Z,50.60
2018-06-05T03:17:58.394Z,52.90
2018-06-05T03:20:27.344Z,49.60
2018-06-05T03:22:55.466Z,49.03
2018-06-05T03:25:23.624Z,50.43
2018-06-05T03:27:51.790Z,51.27
2018-06-05T03:30:19.950Z,49.80
2018-06-05T03:32:48.119Z,51.20
2018-06-05T03:35:16.283Z,53.10
2018-06-05T03:37:44.463Z,50.63
2018-06-05T03:40:12.622Z,51.80
2018-06-05T03:42:40.822Z,55.00
2018-06-05T03:45:08.954Z,50.87
2018-06-05T03:47:37.102Z,48.90
2018-06-05T03:50:05.266Z,51.10
2018-06-05T03:52:33.434Z,52.47
2018-06-05T03:55:01.608Z,50.60
2018-06-05T03:57:29.766Z,51.00
2018-06-05T03:59:57.930Z,48.83
2018-06-05T04:02:26.090Z,47.63
2018-06-05T04:04:54.262Z,49.80
2018-06-05T04:07:28.646Z,47.60
2018-06-05T04:09:56.814Z,50.17
2018-06-05T04:12:24.965Z,48.67
2018-06-05T04:14:53.127Z,48.67
2018-06-05T04:17:21.286Z,48.60
2018-06-05T04:19:49.518Z,46.70
2018-06-05T04:22:17.702Z,46.93
2018-06-05T04:24:45.894Z,48.50
2018-06-05T04:27:14.074Z,47.77
2018-06-05T04:29:42.238Z,45.33
2018-06-05T04:32:10.415Z,45.97
2018-06-05T04:34:38.574Z,44.23
2018-06-05T04:37:06.971Z,45.00
2018-06-05T04:39:35.217Z,43.10
2018-06-05T04:42:03.387Z,43.73
2018-06-05T04:44:31.542Z,41.70
2018-06-05T04:46:59.702Z,44.17
2018-06-05T04:49:27.864Z,41.57
2018-06-05T04:51:56.046Z,41.93
2018-06-05T04:54:24.223Z,39.83
2018-06-05T04:56:52.382Z,40.57
2018-06-05T04:59:20.558Z,42.30
2018-06-05T05:01:48.734Z,39.17
2018-06-05T05:04:16.889Z,40.83
2018-06-05T05:06:45.058Z,39.57
2018-06-05T05:09:13.401Z,39.87
2018-06-05T05:11:41.570Z,39.23
2018-06-05T05:14:09.734Z,38.93
2018-06-05T05:16:37.921Z,39.10
2018-06-05T05:19:06.158Z,38.57
2018-06-05T05:21:34.324Z,36.67
2018-06-05T05:24:02.487Z,38.10
2018-06-05T05:26:30.667Z,36.83
2018-06-05T05:28:58.826Z,37.20
2018-06-05T05:31:26.989Z,37.57
2018-06-05T05:33:55.142Z,36.50
2018-06-05T05:36:23.314Z,38.07
2018-06-05T05:38:51.494Z,35.37
2018-06-05T05:41:19.678Z,35.17
2018-06-05T05:43:47.846Z,34.70
2018-06-05T05:46:15.999Z,36.03
2018-06-05T05:48:44.182Z,35.70
2018-06-05T05:51:12.330Z,35.70
2018-06-05T05:53:40.534Z,34.90
2018-06-05T05:56:08.683Z,35.10
2018-06-05T05:58:36.842Z,35.03
2018-06-05T06:01:05.030Z,33.17
2018-06-05T06:03:33.198Z,34.20
2018-06-05T06:06:01.362Z,34.33
2018-06-05T06:08:29.514Z,33.00
2018-06-05T06:10:57.761Z,34.00
2018-06-05T06:13:25.842Z,31.77
2018-06-05T06:15:54.004Z,34.70
2018-06-05T06:18:22.163Z,34.60
2018-06-05T06:20:50.314Z,32.70
2018-06-05T06:23:18.470Z,35.10
2018-06-05T06:25:46.630Z,35.43
2018-06-05T06:28:14.799Z,33.63
2018-06-05T06:30:42.947Z,31.60
2018-06-05T06:33:11.100Z,33.90
2018-06-05T06:35:39.246Z,33.60
2018-06-05T06:38:07.414Z,33.73
2018-06-05T06:40:35.570Z,35.30
2018-06-05T06:43:03.738Z,34.10
2018-06-05T06:45:31.882Z,32.13
2018-06-05T06:48:00.026Z,32.27
2018-06-05T06:50:28.922Z,30.70
2018-06-05T06:52:57.074Z,32.50
2018-06-05T06:55:25.227Z,30.57
2018-06-05T06:57:53.379Z,32.33
2018-06-05T07:00:21.526Z,32.33
2018-06-05T07:02:49.678Z,32.67
2018-06-05T07:05:17.850Z,34.73
2018-06-05T07:07:46.001Z,33.47
2018-06-05T07:10:14.166Z,33.07
2018-06-05T07:12:42.323Z,32.40
2018-06-05T07:15:10.466Z,33.47
2018-06-05T07:17:38.626Z,32.67
2018-06-05T07:20:06.779Z,31.67
2018-06-05T07:22:34.952Z,34.17
2018-06-05T07:25:03.090Z,31.87
2018-06-05T07:27:31.246Z,32.50
2018-06-05T07:29:59.830Z,35.07
2018-06-05T07:32:27.990Z,32.80
2018-06-05T07:34:56.143Z,34.40
2018-06-05T07:37:24.315Z,34.37
2018-06-05T07:39:52.524Z,32.57
2018-06-05T07:42:20.700Z,32.37
2018-06-05T07:44:48.851Z,33.57
2018-06-05T07:47:17.014Z,35.47
2018-06-05T07:49:45.172Z,34.03
2018-06-05T07:52:13.329Z,33.90
2018-06-05T07:54:41.482Z,33.83
2018-06-05T07:57:09.293Z,34.43
2018-06-05T07:59:37.450Z,35.70
2018-06-05T08:02:05.614Z,32.20
2018-06-05T08:04:33.794Z,34.90
2018-06-05T08:07:02.078Z,33.73
2018-06-05T08:09:30.230Z,34.43
2018-06-05T08:11:58.387Z,34.23
2018-06-05T08:14:26.538Z,35.10
2018-06-05T08:16:54.715Z,34.23
2018-06-05T08:19:22.866Z,36.80
2018-06-05T08:21:51.031Z,35.50
2018-06-05T08:24:19.187Z,35.70
2018-06-05T08:26:52.075Z,34.27
2018-06-05T08:29:20.767Z,35.60
2018-06-05T08:31:48.974Z,35.63
2018-06-05T08:34:17.132Z,37.77
2018-06-05T08:36:45.291Z,38.77
2018-06-05T08:39:13.463Z,35.80
2018-06-05T08:41:41.683Z,35.57
2018-06-05T08:44:09.850Z,35.90
2018-06-05T08:46:38.018Z,38.50
2018-06-05T08:49:06.214Z,37.17
2018-06-05T08:51:34.378Z,36.90
2018-06-05T08:54:02.548Z,37.07
2018-06-05T08:56:30.703Z,36.87
2018-06-05T08:58:58.878Z,37.47
2018-06-05T09:01:27.050Z,35.67
2018-06-05T09:03:55.214Z,33.10
2018-06-05T09:06:23.370Z,35.13
2018-06-05T09:08:51.534Z,34.80
2018-06-05T09:11:19.718Z,37.73
2018-06-05T09:13:47.890Z,34.73
2018-06-05T09:16:16.054Z,35.00
2018-06-05T09:18:44.202Z,36.27
2018-06-05T09:21:12.375Z,33.57
2018-06-05T09:23:40.715Z,35.17
2018-06-05T09:26:08.886Z,35.43
2018-06-05T09:28:37.066Z,35.73
2018-06-05T09:31:05.238Z,35.63
2018-06-05T09:33:33.410Z,34.07
2018-06-05T09:36:01.582Z,33.00
2018-06-05T09:38:29.744Z,34.93
2018-06-05T09:40:57.911Z,33.67
2018-06-05T09:43:26.066Z,34.60
2018-06-05T09:45:54.226Z,35.70
2018-06-05T09:48:22.381Z,35.20
2018-06-05T09:50:50.561Z,34.17
2018-06-05T09:53:18.730Z,34.23
2018-06-05T09:55:46.903Z,36.30
2018-06-05T09:58:15.241Z,35.17
2018-06-05T10:00:48.626Z,35.33
2018-06-05T10:03:16.782Z,32.80
2018-06-05T10:05:44.959Z,36.37
2018-06-05T10:08:13.111Z,36.57
2018-06-05T10:10:41.294Z,37.23
2018-06-05T10:13:09.447Z,36.33
2018-06-05T10:15:37.606Z,37.10
2018-06-05T10:18:05.950Z,33.73
2018-06-05T10:20:34.135Z,34.80
2018-06-05T10:23:02.318Z,36.70
2018-06-05T10:25:30.498Z,37.00
2018-06-05T10:27:58.662Z,34.00
2018-06-05T10:30:26.887Z,35.30
2018-06-05T10:32:55.057Z,34.10
2018-06-05T10:35:23.222Z,35.80
2018-06-05T10:37:51.406Z,37.90
2018-06-05T10:40:19.571Z,35.73
2018-06-05T10:42:47.755Z,38.90
2018-06-05T10:45:15.918Z,39.87
2018-06-05T10:47:44.094Z,40.10
2018-06-05T10:50:12.270Z,38.77
2018-06-05T10:52:40.464Z,40.10
2018-06-05T10:55:08.631Z,41.17
2018-06-05T10:57:36.970Z,39.23
2018-06-05T11:00:05.239Z,37.80
2018-06-05T11:02:33.435Z,35.50
2018-06-05T11:05:01.582Z,39.40
2018-06-05T11:07:29.750Z,37.40
2018-06-05T11:09:57.922Z,38.23
2018-06-05T11:12:26.089Z,41.00
2018-06-05T11:14:54.239Z,39.80
2018-06-05T11:17:22.382Z,37.67
2018-06-05T11:19:50.610Z,40.40
2018-06-05T11:22:18.750Z,39.00
2018-06-05T11:24:46.951Z,39.83
2018-06-05T11:27:15.090Z,37.63
2018-06-05T11:29:43.258Z,40.50
2018-06-05T11:32:11.481Z,38.20
2018-06-05T11:34:39.622Z,36.50
2018-06-05T11:37:07.848Z,36.90
2018-06-05T11:39:36.043Z,35.63
2018-06-05T11:42:04.210Z,36.73
2018-06-05T11:44:32.462Z,36.90
2018-06-05T11:47:00.667Z,36.60
2018-06-05T11:49:28.821Z,35.93
2018-06-05T11:51:56.990Z,38.37
2018-06-05T11:54:25.159Z,36.90
2018-06-05T11:56:53.323Z,36.80
2018-06-05T11:59:21.491Z,38.83
2018-06-05T12:01:49.661Z,37.77
2018-06-05T12:04:17.833Z,36.40
2018-06-05T12:06:46.045Z,35.63
2018-06-05T12:09:14.208Z,36.10
2018-06-05T12:11:42.409Z,36.70
2018-06-05T12:14:10.577Z,35.10
2018-06-05T12:16:38.757Z,37.77
2018-06-05T12:19:06.922Z,33.80
2018-06-05T12:21:35.087Z,38.83
2018-06-05T12:24:03.246Z,37.13
2018-06-05T12:26:31.407Z,33.30
2018-06-05T12:28:59.563Z,37.10
2018-06-05T12:31:27.734Z,38.03
2018-06-05T12:33:55.942Z,36.80
2018-06-05T12:36:24.243Z,37.13
2018-06-05T12:38:52.579Z,36.80
2018-06-05T12:41:20.802Z,37.40
2018-06-05T12:43:48.962Z,36.40
2018-06-05T12:46:17.142Z,33.40
2018-06-05T12:48:45.342Z,35.63
2018-06-05T12:51:13.535Z,37.37
2018-06-05T12:53:41.902Z,38.60
2018-06-05T12:56:10.318Z,36.07
2018-06-05T12:58:38.495Z,39.40
2018-06-05T13:01:06.728Z,36.50
2018-06-05T13:03:34.898Z,37.73
2018-06-05T13:06:03.180Z,34.57
2018-06-05T13:08:31.411Z,35.57
2018-06-05T13:10:59.847Z,36.67
2018-06-05T13:13:28.079Z,37.30
2018-06-05T13:15:56.362Z,38.90
2018-06-05T13:18:24.590Z,38.67
2018-06-05T13:20:52.774Z,38.57
2018-06-05T13:23:20.922Z,36.83
2018-06-05T13:25:49.180Z,38.30
2018-06-05T13:28:17.362Z,36.93
2018-06-05T13:30:45.850Z,38.90
2018-06-05T13:33:14.102Z,36.03
2018-06-05T13:35:43.625Z,35.83
2018-06-05T13:38:11.817Z,37.77
2018-06-05T13:40:39.994Z,37.60
2018-06-05T13:43:08.296Z,36.60
2018-06-05T13:45:36.442Z,34.80
2018-06-05T13:48:04.647Z,36.17
2018-06-05T13:50:32.919Z,36.47
2018-06-05T13:53:01.211Z,33.30
2018-06-05T13:55:29.392Z,37.10
2018-06-05T13:57:57.592Z,36.10
2018-06-05T14:00:25.806Z,37.43
2018-06-05T14:02:53.995Z,35.07
2018-06-05T14:05:22.166Z,35.77
2018-06-05T14:07:50.332Z,37.70
2018-06-05T14:10:18.515Z,37.70
2018-06-05T14:12:46.707Z,35.90
2018-06-05T14:15:14.946Z,36.30
2018-06-05T14:17:43.115Z,37.37
2018-06-05T14:20:11.323Z,34.50
2018-06-05T14:22:39.484Z,35.37
2018-06-05T14:25:07.698Z,35.97
2018-06-05T14:27:35.870Z,36.30
2018-06-05T14:30:04.470Z,37.87
2018-06-05T14:32:32.656Z,36.40
2018-06-05T14:35:00.839Z,40.33
2018-06-05T14:37:29.063Z,39.73
2018-06-05T14:39:57.311Z,40.00
2018-06-05T14:42:25.526Z,37.83
2018-06-05T14:44:53.772Z,39.90
2018-06-05T14:47:21.946Z,39.87
2018-06-05T14:49:50.102Z,39.47
2018-06-05T14:52:18.321Z,39.20
2018-06-05T14:54:46.511Z,38.40
2018-06-05T14:57:14.670Z,38.33
2018-06-05T14:59:42.843Z,39.47
2018-06-05T15:02:11.040Z,40.77
2018-06-05T15:04:39.189Z,40.07
2018-06-05T15:07:07.334Z,38.90
2018-06-05T15:09:35.518Z,39.80
2018-06-05T15:12:04.163Z,37.97
2018-06-05T15:14:32.323Z,37.83
2018-06-05T15:17:00.480Z,36.40
2018-06-05T15:19:28.658Z,38.80
2018-06-05T15:24:47.270Z,34.70
2018-06-05T15:27:15.502Z,38.00
2018-06-05T15:29:43.659Z,34.20
2018-06-05T15:32:11.810Z,36.80
2018-06-05T15:34:39.983Z,37.50
2018-06-05T15:37:08.275Z,38.57
2018-06-05T15:39:36.830Z,34.37
2018-06-05T15:42:05.145Z,34.83
2018-06-05T15:44:33.338Z,35.00
2018-06-05T15:47:01.535Z,38.47
2018-06-05T15:49:29.765Z,35.60
2018-06-05T15:51:57.949Z,37.80
2018-06-05T15:54:26.146Z,39.00
2018-06-05T15:56:54.618Z,37.37
2018-06-05T15:59:22.803Z,36.80
2018-06-05T16:01:50.987Z,35.97
2018-06-05T16:04:19.183Z,36.63
2018-06-05T16:06:47.347Z,38.00
2018-06-05T16:09:15.512Z,36.30
2018-06-05T16:11:43.726Z,37.53
2018-06-05T16:14:11.878Z,36.83
2018-06-05T16:16:40.047Z,36.00
2018-06-05T16:19:08.233Z,35.13
2018-06-05T16:21:38.057Z,36.23
2018-06-05T16:24:06.386Z,35.40
2018-06-05T16:26:34.538Z,37.20
2018-06-05T16:29:02.727Z,35.30
2018-06-05T16:31:30.898Z,34.63
2018-06-05T16:33:59.054Z,34.70
2018-06-05T16:36:27.270Z,34.50
2018-06-05T16:38:55.426Z,34.00
2018-06-05T16:41:23.606Z,34.60
2018-06-05T16:43:51.762Z,34.00
2018-06-05T16:46:19.926Z,33.97
2018-06-05T16:48:48.106Z,32.60
2018-06-05T16:51:16.259Z,33.80
2018-06-05T16:53:44.431Z,35.80
2018-06-05T16:56:12.618Z,33.40
2018-06-05T16:58:40.811Z,33.60
2018-06-05T17:01:09.284Z,33.63
2018-06-05T17:03:37.479Z,32.80
2018-06-05T17:06:05.658Z,34.27
2018-06-05T17:08:33.847Z,33.70
2018-06-05T17:11:02.330Z,33.33
2018-06-05T17:13:30.540Z,35.37
2018-06-05T17:15:58.811Z,34.17
2018-06-05T17:18:27.158Z,34.83
2018-06-05T17:20:55.490Z,36.77
2018-06-05T17:23:24.015Z,38.03
2018-06-05T17:25:52.254Z,37.03
2018-06-05T17:28:20.579Z,36.53
2018-06-05T17:30:48.857Z,37.20
2018-06-05T17:33:18.043Z,36.20
2018-06-05T17:35:46.194Z,38.17
2018-06-05T17:38:14.398Z,37.47
2018-06-05T17:40:42.624Z,35.77
2018-06-05T17:43:10.863Z,36.63
2018-06-05T17:45:39.118Z,34.63
2018-06-05T17:48:07.337Z,34.57
2018-06-05T17:50:35.712Z,34.00
2018-06-05T17:53:03.925Z,34.97
2018-06-05T17:55:32.162Z,34.57
2018-06-05T17:58:00.358Z,34.93
2018-06-05T18:00:28.782Z,36.70
2018-06-05T18:02:56.942Z,34.10
2018-06-05T18:05:25.180Z,38.23
2018-06-05T18:07:53.422Z,33.60
2018-06-05T18:10:21.681Z,36.67
2018-06-05T18:12:49.834Z,34.90
2018-06-05T18:15:18.223Z,36.53
2018-06-05T18:17:46.527Z,36.90
2018-06-05T18:20:14.706Z,36.40
2018-06-05T18:22:42.970Z,35.47
2018-06-05T18:25:11.166Z,37.60
2018-06-05T18:27:39.346Z,38.53
2018-06-05T18:30:07.687Z,36.80
2018-06-05T18:32:35.880Z,38.10
2018-06-05T18:35:04.124Z,35.03
2018-06-05T18:37:32.326Z,35.93
2018-06-05T18:40:00.489Z,36.20
2018-06-05T18:42:28.648Z,38.43
2018-06-05T18:44:56.895Z,39.67
2018-06-05T18:47:25.050Z,40.97
2018-06-05T18:49:53.225Z,41.20
2018-06-05T18:52:21.378Z,40.87
2018-06-05T18:54:49.522Z,39.13
2018-06-05T18:57:17.769Z,41.37
2018-06-05T18:59:46.034Z,42.17
2018-06-05T19:02:14.458Z,42.73
2018-06-05T19:04:42.698Z,42.00
2018-06-05T19:07:10.883Z,42.83
2018-06-05T19:09:45.535Z,50.30
2018-06-05T19:12:13.953Z,46.33
2018-06-05T19:14:42.485Z,47.60
2018-06-05T19:17:10.771Z,50.07
2018-06-05T19:19:39.039Z,50.57
2018-06-05T19:22:07.327Z,49.50
2018-06-05T19:24:35.610Z,50.00
2018-06-05T19:27:03.811Z,50.63
2018-06-05T19:29:32.154Z,48.70
2018-06-05T19:32:00.320Z,48.60
2018-06-05T19:34:29.329Z,48.70
2018-06-05T19:36:57.486Z,49.57
2018-06-05T19:39:25.646Z,49.80
2018-06-05T19:41:53.802Z,50.90
2018-06-05T19:44:21.950Z,50.00
2018-06-05T19:46:50.114Z,50.00
2018-06-05T19:49:18.279Z,49.80
2018-06-05T19:51:46.511Z,49.13
2018-06-05T19:54:14.664Z,50.57
2018-06-05T19:56:42.826Z,50.70
2018-06-05T19:59:11.187Z,50.23
2018-06-05T20:01:39.338Z,51.37
2018-06-05T20:04:07.498Z,51.80
2018-06-05T20:06:35.642Z,50.97
2018-06-05T20:09:04.231Z,49.23
2018-06-05T20:11:32.382Z,52.23
2018-06-05T20:14:00.682Z,52.87
2018-06-05T20:16:28.846Z,51.10
2018-06-05T20:18:57.002Z,51.17
2018-06-05T20:21:25.338Z,51.40
2018-06-05T20:23:53.507Z,51.73
2018-06-05T20:26:21.648Z,51.60
2018-06-05T20:28:49.802Z,53.40
2018-06-05T20:31:17.970Z,50.93
2018-06-05T20:33:46.118Z,52.73
2018-06-05T20:36:14.282Z,52.13
2018-06-05T20:38:42.456Z,51.73
2018-06-05T20:41:10.618Z,52.37
2018-06-05T20:43:38.762Z,53.60
2018-06-05T20:46:06.935Z,51.77
2018-06-05T20:48:35.106Z,50.77
2018-06-05T20:51:03.279Z,51.50
2018-06-05T20:53:31.459Z,49.60
2018-06-05T20:55:59.614Z,51.43
2018-06-05T20:58:27.763Z,51.90
2018-06-05T21:00:55.934Z,55.57
2018-06-05T21:03:24.094Z,52.97
2018-06-05T21:05:52.279Z,54.67
2018-06-05T21:08:20.430Z,54.40
2018-06-05T21:10:48.591Z,55.53
2018-06-05T21:13:16.739Z,52.90
2018-06-05T21:15:44.890Z,51.57
2018-06-05T21:18:13.078Z,53.30
2018-06-05T21:20:41.226Z,54.13
2018-06-05T21:23:09.375Z,53.53
2018-06-05T21:25:37.522Z,54.87
2018-06-05T21:28:05.859Z,51.97
2018-06-05T21:30:34.470Z,53.53
2018-06-05T21:33:02.606Z,51.40
2018-06-05T21:35:30.757Z,52.80
2018-06-05T21:37:59.022Z,53.40
2018-06-05T21:40:27.665Z,50.87
2018-06-05T21:42:55.894Z,52.83
2018-06-05T21:45:24.046Z,53.23
2018-06-05T21:47:52.186Z,52.27
2018-06-05T21:50:20.335Z,54.40
2018-06-05T21:52:48.475Z,53.27
2018-06-05T21:55:16.628Z,49.70
2018-06-05T21:57:44.774Z,52.97
2018-06-05T22:00:12.938Z,52.20
2018-06-05T22:02:41.090Z,47.50
2018-06-05T22:05:09.254Z,50.73
2018-06-05T22:07:37.415Z,54.00
2018-06-05T22:10:05.566Z,49.17
2018-06-05T22:12:33.743Z,53.30
2018-06-05T22:15:01.887Z,49.50
2018-06-05T22:17:30.052Z,47.03
2018-06-05T22:19:58.313Z,47.50
2018-06-05T22:22:26.470Z,51.20
2018-06-05T22:24:54.622Z,48.03
2018-06-05T22:27:22.770Z,48.17
2018-06-05T22:29:50.942Z,48.50
2018-06-05T22:32:19.105Z,50.77
2018-06-05T22:34:47.274Z,50.30
2018-06-05T22:37:15.442Z,49.43
2018-06-05T22:39:43.615Z,50.83
2018-06-05T22:42:11.790Z,52.77
2018-06-05T22:44:39.982Z,50.17
2018-06-05T22:47:08.134Z,51.57
2018-06-05T22:49:36.314Z,47.87
2018-06-05T22:52:04.482Z,46.30
2018-06-05T22:54:32.639Z,47.63
2018-06-05T22:57:00.814Z,48.37
2018-06-05T22:59:28.988Z,53.27
2018-06-05T23:01:57.158Z,49.87
2018-06-05T23:04:25.320Z,49.63
2018-06-05T23:06:53.466Z,48.33
2018-06-05T23:09:21.634Z,48.80
2018-06-05T23:11:49.844Z,47.87
2018-06-05T23:14:18.010Z,49.40
2018-06-05T23:16:46.174Z,47.67
2018-06-05T23:19:14.337Z,48.93
2018-06-05T23:21:42.495Z,47.87
2018-06-05T23:24:10.650Z,46.00
2018-06-05T23:26:39.176Z,47.57
2018-06-05T23:29:07.326Z,46.13
2018-06-05T23:31:35.482Z,47.17
2018-06-05T23:34:03.650Z,46.23
2018-06-05T23:36:31.808Z,48.70
2018-06-05T23:38:59.969Z,46.97
2018-06-05T23:41:28.134Z,46.97
2018-06-05T23:43:56.302Z,45.30
2018-06-05T23:46:24.459Z,46.90
2018-06-05T23:48:52.618Z,48.00
2018-06-05T23:51:20.779Z,46.23
2018-06-05T23:53:48.930Z,50.93
2018-06-05T23:56:17.106Z,49.87
2018-06-05T23:58:45.262Z,48.83
